sensor_id;sensor_type;location;lat;lon;timestamp;pressure;altitude;pressure_sealevel;temperature;humidity
23281;BME280;11809;56.390;-3.266;2023-08-06T00:01:31;101137.84;;;18.58;64.52
23281;BME280;11809;56.390;-3.266;2023-08-06T00:03:58;101128.25;;;18.56;64.54
23281;BME280;11809;56.390;-3.266;2023-08-06T00:06:26;101127.41;;;18.55;64.46
23281;BME280;11809;56.390;-3.266;2023-08-06T00:08:54;101134.56;;;18.55;64.37
23281;BME280;11809;56.390;-3.266;2023-08-06T00:11:22;101140.72;;;18.55;64.36
23281;BME280;11809;56.390;-3.266;2023-08-06T00:13:49;101133.78;;;18.53;64.43
23281;BME280;11809;56.390;-3.266;2023-08-06T00:16:17;101139.22;;;18.51;64.42
23281;BME280;11809;56.390;-3.266;2023-08-06T00:18:44;101137.50;;;18.50;64.41
23281;BME280;11809;56.390;-3.266;2023-08-06T00:21:11;101135.81;;;18.49;64.42
23281;BME280;11809;56.390;-3.266;2023-08-06T00:23:40;101138.47;;;18.49;64.59
23281;BME280;11809;56.390;-3.266;2023-08-06T00:26:21;101135.81;;;18.49;64.51
23281;BME280;11809;56.390;-3.266;2023-08-06T00:28:48;101136.75;;;18.48;64.46
23281;BME280;11809;56.390;-3.266;2023-08-06T00:31:15;101143.00;;;18.47;64.51
23281;BME280;11809;56.390;-3.266;2023-08-06T00:33:42;101141.28;;;18.46;64.62
23281;BME280;11809;56.390;-3.266;2023-08-06T00:36:09;101140.75;;;18.41;64.43
23281;BME280;11809;56.390;-3.266;2023-08-06T00:38:36;101146.69;;;18.45;64.63
23281;BME280;11809;56.390;-3.266;2023-08-06T00:41:04;101151.16;;;18.44;64.50
23281;BME280;11809;56.390;-3.266;2023-08-06T00:43:31;101150.41;;;18.42;64.57
23281;BME280;11809;56.390;-3.266;2023-08-06T00:45:58;101152.22;;;18.42;64.72
23281;BME280;11809;56.390;-3.266;2023-08-06T00:48:26;101155.00;;;18.40;64.65
23281;BME280;11809;56.390;-3.266;2023-08-06T00:50:53;101147.13;;;18.39;64.77
23281;BME280;11809;56.390;-3.266;2023-08-06T00:53:20;101153.28;;;18.39;64.78
23281;BME280;11809;56.390;-3.266;2023-08-06T00:55:48;101155.19;;;18.37;64.66
23281;BME280;11809;56.390;-3.266;2023-08-06T00:58:16;101148.06;;;18.38;64.77
23281;BME280;11809;56.390;-3.266;2023-08-06T01:00:43;101150.72;;;18.38;64.63
23281;BME280;11809;56.390;-3.266;2023-08-06T01:03:10;101154.31;;;18.37;64.60
23281;BME280;11809;56.390;-3.266;2023-08-06T01:05:38;101154.63;;;18.32;64.93
23281;BME280;11809;56.390;-3.266;2023-08-06T01:13:47;101148.56;;;18.30;65.13
23281;BME280;11809;56.390;-3.266;2023-08-06T01:16:20;101148.56;;;18.30;64.93
23281;BME280;11809;56.390;-3.266;2023-08-06T01:18:48;101148.63;;;18.29;64.94
23281;BME280;11809;56.390;-3.266;2023-08-06T01:21:16;101154.94;;;18.28;65.19
23281;BME280;11809;56.390;-3.266;2023-08-06T01:23:44;101159.38;;;18.27;64.94
23281;BME280;11809;56.390;-3.266;2023-08-06T01:26:19;101149.88;;;18.23;65.06
23281;BME280;11809;56.390;-3.266;2023-08-06T01:29:10;101154.06;;;18.27;65.00
23281;BME280;11809;56.390;-3.266;2023-08-06T01:31:40;101156.06;;;18.24;65.07
23281;BME280;11809;56.390;-3.266;2023-08-06T01:34:17;101154.16;;;18.26;65.00
23281;BME280;11809;56.390;-3.266;2023-08-06T01:36:47;101148.06;;;18.24;64.99
23281;BME280;11809;56.390;-3.266;2023-08-06T01:39:14;101161.31;;;18.25;64.89
23281;BME280;11809;56.390;-3.266;2023-08-06T01:41:42;101165.84;;;18.23;65.10
23281;BME280;11809;56.390;-3.266;2023-08-06T01:44:08;101166.81;;;18.22;65.18
23281;BME280;11809;56.390;-3.266;2023-08-06T01:46:36;101169.38;;;18.24;64.92
23281;BME280;11809;56.390;-3.266;2023-08-06T01:49:03;101170.22;;;18.24;64.90
23281;BME280;11809;56.390;-3.266;2023-08-06T01:51:30;101165.94;;;18.22;64.92
23281;BME280;11809;56.390;-3.266;2023-08-06T01:53:56;101175.53;;;18.24;64.86
23281;BME280;11809;56.390;-3.266;2023-08-06T01:56:24;101166.81;;;18.22;64.89
23281;BME280;11809;56.390;-3.266;2023-08-06T01:58:51;101170.41;;;18.21;64.90
23281;BME280;11809;56.390;-3.266;2023-08-06T02:01:18;101170.41;;;18.21;64.97
23281;BME280;11809;56.390;-3.266;2023-08-06T02:03:45;101173.19;;;18.20;64.92
23281;BME280;11809;56.390;-3.266;2023-08-06T02:06:12;101177.66;;;18.19;64.96
23281;BME280;11809;56.390;-3.266;2023-08-06T02:08:39;101172.31;;;18.19;65.00
23281;BME280;11809;56.390;-3.266;2023-08-06T02:11:06;101177.66;;;18.19;64.70
23281;BME280;11809;56.390;-3.266;2023-08-06T02:13:33;101174.97;;;18.19;64.92
23281;BME280;11809;56.390;-3.266;2023-08-06T02:16:00;101176.91;;;18.17;65.00
23281;BME280;11809;56.390;-3.266;2023-08-06T02:18:27;101173.56;;;18.13;65.26
23281;BME280;11809;56.390;-3.266;2023-08-06T02:20:56;101179.63;;;18.15;65.22
23281;BME280;11809;56.390;-3.266;2023-08-06T02:23:24;101178.88;;;18.13;65.16
23281;BME280;11809;56.390;-3.266;2023-08-06T02:26:02;101176.34;;;18.12;64.96
23281;BME280;11809;56.390;-3.266;2023-08-06T02:28:30;101172.69;;;18.13;65.12
23281;BME280;11809;56.390;-3.266;2023-08-06T02:30:57;101179.75;;;18.14;65.10
23281;BME280;11809;56.390;-3.266;2023-08-06T02:33:24;101177.16;;;18.12;64.98
23281;BME280;11809;56.390;-3.266;2023-08-06T02:35:58;101176.34;;;18.12;64.95
23281;BME280;11809;56.390;-3.266;2023-08-06T02:38:26;101170.22;;;18.10;65.17
23281;BME280;11809;56.390;-3.266;2023-08-06T02:40:53;101174.72;;;18.09;65.16
23281;BME280;11809;56.390;-3.266;2023-08-06T02:43:20;101176.53;;;18.09;65.18
23281;BME280;11809;56.390;-3.266;2023-08-06T02:45:48;101175.56;;;18.10;65.08
23281;BME280;11809;56.390;-3.266;2023-08-06T02:48:15;101172.88;;;18.10;65.06
23281;BME280;11809;56.390;-3.266;2023-08-06T02:50:42;101173.88;;;18.09;65.09
23281;BME280;11809;56.390;-3.266;2023-08-06T02:53:09;101175.56;;;18.10;64.94
23281;BME280;11809;56.390;-3.266;2023-08-06T02:55:36;101178.22;;;18.10;65.10
23281;BME280;11809;56.390;-3.266;2023-08-06T02:58:03;101173.13;;;18.07;65.16
23281;BME280;11809;56.390;-3.266;2023-08-06T03:00:30;101176.53;;;18.09;65.21
23281;BME280;11809;56.390;-3.266;2023-08-06T03:02:57;101178.44;;;18.07;65.33
23281;BME280;11809;56.390;-3.266;2023-08-06T03:05:24;101182.03;;;18.06;65.21
23281;BME280;11809;56.390;-3.266;2023-08-06T03:07:51;101186.59;;;18.04;65.18
23281;BME280;11809;56.390;-3.266;2023-08-06T03:10:18;101178.63;;;18.04;65.27
23281;BME280;11809;56.390;-3.266;2023-08-06T03:12:46;101177.75;;;18.03;65.23
23281;BME280;11809;56.390;-3.266;2023-08-06T03:15:13;101179.44;;;18.04;65.03
23281;BME280;11809;56.390;-3.266;2023-08-06T03:17:40;101181.28;;;18.04;65.18
23281;BME280;11809;56.390;-3.266;2023-08-06T03:20:08;101177.09;;;18.00;65.25
23281;BME280;11809;56.390;-3.266;2023-08-06T03:22:35;101189.34;;;18.02;65.25
23281;BME280;11809;56.390;-3.266;2023-08-06T03:25:02;101185.75;;;18.03;65.27
23281;BME280;11809;56.390;-3.266;2023-08-06T03:27:30;101192.00;;;18.02;65.28
23281;BME280;11809;56.390;-3.266;2023-08-06T03:29:57;101187.66;;;18.01;65.21
23281;BME280;11809;56.390;-3.266;2023-08-06T03:32:24;101178.06;;;17.99;65.31
23281;BME280;11809;56.390;-3.266;2023-08-06T03:34:51;101180.72;;;17.99;65.18
23281;BME280;11809;56.390;-3.266;2023-08-06T03:37:18;101178.88;;;17.99;65.37
23281;BME280;11809;56.390;-3.266;2023-08-06T03:39:45;101177.28;;;17.97;65.20
23281;BME280;11809;56.390;-3.266;2023-08-06T03:42:12;101175.59;;;17.96;65.38
23281;BME280;11809;56.390;-3.266;2023-08-06T03:44:39;101168.66;;;17.93;65.32
23281;BME280;11809;56.390;-3.266;2023-08-06T03:47:06;101167.03;;;17.91;65.40
23281;BME280;11809;56.390;-3.266;2023-08-06T03:49:33;101184.50;;;17.95;65.26
23281;BME280;11809;56.390;-3.266;2023-08-06T03:52:00;101182.59;;;17.97;65.24
23281;BME280;11809;56.390;-3.266;2023-08-06T03:54:27;101185.34;;;17.95;65.23
23281;BME280;11809;56.390;-3.266;2023-08-06T03:56:54;101187.16;;;17.95;65.42
23281;BME280;11809;56.390;-3.266;2023-08-06T03:59:21;101190.69;;;17.95;65.20
23281;BME280;11809;56.390;-3.266;2023-08-06T04:01:48;101189.81;;;17.95;65.17
23281;BME280;11809;56.390;-3.266;2023-08-06T04:04:16;101193.41;;;17.94;65.17
23281;BME280;11809;56.390;-3.266;2023-08-06T04:06:43;101193.53;;;17.92;65.14
23281;BME280;11809;56.390;-3.266;2023-08-06T04:09:10;101193.03;;;17.86;65.29
23281;BME280;11809;56.390;-3.266;2023-08-06T04:11:37;101193.81;;;17.88;65.36
23281;BME280;11809;56.390;-3.266;2023-08-06T04:14:04;101204.53;;;17.86;65.49
23281;BME280;11809;56.390;-3.266;2023-08-06T04:16:31;101205.31;;;17.88;65.42
23281;BME280;11809;56.390;-3.266;2023-08-06T04:18:58;101198.47;;;17.84;65.56
23281;BME280;11809;56.390;-3.266;2023-08-06T04:21:25;101194.38;;;17.79;65.63
23281;BME280;11809;56.390;-3.266;2023-08-06T04:23:52;101202.06;;;17.83;65.41
23281;BME280;11809;56.390;-3.266;2023-08-06T04:26:19;101202.16;;;17.82;65.51
23281;BME280;11809;56.390;-3.266;2023-08-06T04:28:46;101204.72;;;17.83;65.45
23281;BME280;11809;56.390;-3.266;2023-08-06T04:31:13;101211.75;;;17.84;65.65
23281;BME280;11809;56.390;-3.266;2023-08-06T04:33:40;101211.84;;;17.83;65.50
23281;BME280;11809;56.390;-3.266;2023-08-06T04:36:08;101200.72;;;17.76;65.38
23281;BME280;11809;56.390;-3.266;2023-08-06T04:38:35;101219.16;;;17.79;65.63
23281;BME280;11809;56.390;-3.266;2023-08-06T04:41:02;101219.22;;;17.78;65.57
23281;BME280;11809;56.390;-3.266;2023-08-06T04:43:32;101220.94;;;17.79;65.46
23281;BME280;11809;56.390;-3.266;2023-08-06T04:45:59;101213.91;;;17.78;65.57
23281;BME280;11809;56.390;-3.266;2023-08-06T04:48:26;101219.22;;;17.78;65.55
23281;BME280;11809;56.390;-3.266;2023-08-06T04:50:53;101217.53;;;17.77;65.59
23281;BME280;11809;56.390;-3.266;2023-08-06T04:53:21;101218.41;;;17.77;65.55
23281;BME280;11809;56.390;-3.266;2023-08-06T04:55:48;101207.19;;;17.72;65.67
23281;BME280;11809;56.390;-3.266;2023-08-06T04:58:15;101211.66;;;17.72;65.54
23281;BME280;11809;56.390;-3.266;2023-08-06T05:00:42;101218.59;;;17.74;65.50
23281;BME280;11809;56.390;-3.266;2023-08-06T05:03:09;101223.03;;;17.74;65.61
23281;BME280;11809;56.390;-3.266;2023-08-06T05:05:36;101226.56;;;17.74;65.63
23281;BME280;11809;56.390;-3.266;2023-08-06T05:08:03;101223.91;;;17.74;65.59
23281;BME280;11809;56.390;-3.266;2023-08-06T05:10:30;101228.34;;;17.74;65.83
23281;BME280;11809;56.390;-3.266;2023-08-06T05:12:57;101230.25;;;17.72;65.69
23281;BME280;11809;56.390;-3.266;2023-08-06T05:15:24;101229.69;;;17.67;65.73
23281;BME280;11809;56.390;-3.266;2023-08-06T05:17:54;101227.69;;;17.70;65.70
23281;BME280;11809;56.390;-3.266;2023-08-06T05:20:21;101226.75;;;17.71;65.78
23281;BME280;11809;56.390;-3.266;2023-08-06T05:22:48;101228.34;;;17.74;65.05
23281;BME280;11809;56.390;-3.266;2023-08-06T05:25:15;101225.47;;;17.63;64.57
23281;BME280;11809;56.390;-3.266;2023-08-06T05:27:43;101221.13;;;17.62;65.11
23281;BME280;11809;56.390;-3.266;2023-08-06T05:30:10;101226.84;;;17.70;65.40
23281;BME280;11809;56.390;-3.266;2023-08-06T05:32:37;101224.94;;;17.72;65.41
23281;BME280;11809;56.390;-3.266;2023-08-06T05:35:05;101228.63;;;17.69;65.69
23281;BME280;11809;56.390;-3.266;2023-08-06T05:37:33;101223.41;;;17.68;66.19
23281;BME280;11809;56.390;-3.266;2023-08-06T05:40:00;101232.81;;;17.73;66.45
23281;BME280;11809;56.390;-3.266;2023-08-06T05:42:28;101239.00;;;17.74;66.44
23281;BME280;11809;56.390;-3.266;2023-08-06T05:44:55;101245.00;;;17.77;66.54
23281;BME280;11809;56.390;-3.266;2023-08-06T05:47:22;101242.03;;;17.82;66.63
23281;BME280;11809;56.390;-3.266;2023-08-06T05:49:49;101240.31;;;17.81;66.43
23281;BME280;11809;56.390;-3.266;2023-08-06T05:52:16;101248.78;;;17.87;66.37
23281;BME280;11809;56.390;-3.266;2023-08-06T05:54:43;101252.31;;;17.88;66.59
23281;BME280;11809;56.390;-3.266;2023-08-06T05:57:10;101245.28;;;17.87;66.48
23281;BME280;11809;56.390;-3.266;2023-08-06T05:59:37;101254.69;;;17.92;66.48
23281;BME280;11809;56.390;-3.266;2023-08-06T06:02:04;101256.28;;;17.81;65.62
23281;BME280;11809;56.390;-3.266;2023-08-06T06:04:31;101246.03;;;17.75;64.71
23281;BME280;11809;56.390;-3.266;2023-08-06T06:06:58;101262.91;;;17.74;65.70
23281;BME280;11809;56.390;-3.266;2023-08-06T06:09:25;101258.34;;;17.76;66.28
23281;BME280;11809;56.390;-3.266;2023-08-06T06:11:52;101254.59;;;17.80;66.22
23281;BME280;11809;56.390;-3.266;2023-08-06T06:14:20;101252.19;;;17.75;66.29
23281;BME280;11809;56.390;-3.266;2023-08-06T06:16:47;101254.28;;;17.84;66.13
23281;BME280;11809;56.390;-3.266;2023-08-06T06:19:14;101266.53;;;17.87;66.19
23281;BME280;11809;56.390;-3.266;2023-08-06T06:21:41;101265.44;;;17.91;66.30
23281;BME280;11809;56.390;-3.266;2023-08-06T06:24:08;101257.44;;;17.91;66.30
23281;BME280;11809;56.390;-3.266;2023-08-06T06:26:35;101259.91;;;17.94;66.15
23281;BME280;11809;56.390;-3.266;2023-08-06T06:29:02;101264.16;;;17.96;66.17
23281;BME280;11809;56.390;-3.266;2023-08-06T06:31:32;101268.56;;;17.97;66.24
23281;BME280;11809;56.390;-3.266;2023-08-06T06:33:59;101267.31;;;18.03;65.96
23281;BME280;11809;56.390;-3.266;2023-08-06T06:36:26;101270.94;;;18.02;66.14
23281;BME280;11809;56.390;-3.266;2023-08-06T06:38:53;101258.97;;;17.95;66.25
23281;BME280;11809;56.390;-3.266;2023-08-06T06:41:20;101259.53;;;18.00;66.05
23281;BME280;11809;56.390;-3.266;2023-08-06T06:43:48;101274.38;;;18.04;66.07
23281;BME280;11809;56.390;-3.266;2023-08-06T06:46:15;101271.53;;;18.07;66.06
23281;BME280;11809;56.390;-3.266;2023-08-06T06:48:42;101267.16;;;18.06;66.17
23281;BME280;11809;56.390;-3.266;2023-08-06T06:51:09;101272.66;;;18.03;66.19
23281;BME280;11809;56.390;-3.266;2023-08-06T06:53:36;101277.69;;;18.07;66.10
23281;BME280;11809;56.390;-3.266;2023-08-06T06:56:04;101278.25;;;18.12;66.24
23281;BME280;11809;56.390;-3.266;2023-08-06T06:58:35;101282.75;;;18.12;66.45
23281;BME280;11809;56.390;-3.266;2023-08-06T07:01:02;101292.50;;;18.11;66.36
23281;BME280;11809;56.390;-3.266;2023-08-06T07:03:29;101285.97;;;18.17;66.27
23281;BME280;11809;56.390;-3.266;2023-08-06T07:05:59;101275.81;;;18.09;66.15
23281;BME280;11809;56.390;-3.266;2023-08-06T07:08:26;101286.03;;;18.15;66.45
23281;BME280;11809;56.390;-3.266;2023-08-06T07:11:03;101289.94;;;18.10;66.28
23281;BME280;11809;56.390;-3.266;2023-08-06T07:13:31;101276.56;;;18.11;66.55
23281;BME280;11809;56.390;-3.266;2023-08-06T07:15:59;101286.16;;;18.14;66.64
23281;BME280;11809;56.390;-3.266;2023-08-06T07:18:26;101281.88;;;18.11;66.63
23281;BME280;11809;56.390;-3.266;2023-08-06T07:20:54;101282.06;;;18.08;66.64
23281;BME280;11809;56.390;-3.266;2023-08-06T07:23:23;101282.75;;;18.12;66.59
23281;BME280;11809;56.390;-3.266;2023-08-06T07:25:51;101284.44;;;18.13;66.60
23281;BME280;11809;56.390;-3.266;2023-08-06T07:28:18;101289.69;;;18.14;66.54
23281;BME280;11809;56.390;-3.266;2023-08-06T07:30:45;101289.56;;;18.16;66.43
23281;BME280;11809;56.390;-3.266;2023-08-06T07:33:13;101287.84;;;18.15;66.74
23281;BME280;11809;56.390;-3.266;2023-08-06T07:35:40;101285.84;;;18.18;66.58
23281;BME280;11809;56.390;-3.266;2023-08-06T07:38:07;101284.34;;;18.29;66.08
23281;BME280;11809;56.390;-3.266;2023-08-06T07:40:35;101289.47;;;18.32;66.33
23281;BME280;11809;56.390;-3.266;2023-08-06T07:43:04;101287.19;;;18.26;66.56
23281;BME280;11809;56.390;-3.266;2023-08-06T07:45:35;101290.53;;;18.29;66.60
23281;BME280;11809;56.390;-3.266;2023-08-06T07:48:03;101290.03;;;18.37;66.58
23281;BME280;11809;56.390;-3.266;2023-08-06T07:50:31;101287.88;;;18.43;66.61
23281;BME280;11809;56.390;-3.266;2023-08-06T07:52:58;101285.19;;;18.43;66.68
23281;BME280;11809;56.390;-3.266;2023-08-06T07:55:25;101285.63;;;18.51;66.49
23281;BME280;11809;56.390;-3.266;2023-08-06T07:57:54;101284.00;;;18.49;66.64
23281;BME280;11809;56.390;-3.266;2023-08-06T08:00:21;101284.66;;;18.52;66.66
23281;BME280;11809;56.390;-3.266;2023-08-06T08:02:50;101290.75;;;18.54;66.49
23281;BME280;11809;56.390;-3.266;2023-08-06T08:05:17;101294.34;;;18.53;66.68
23281;BME280;11809;56.390;-3.266;2023-08-06T08:07:45;101296.06;;;18.54;67.01
23281;BME280;11809;56.390;-3.266;2023-08-06T08:10:12;101294.34;;;18.53;66.91
23281;BME280;11809;56.390;-3.266;2023-08-06T08:12:40;101296.06;;;18.54;66.81
23281;BME280;11809;56.390;-3.266;2023-08-06T08:15:07;101291.59;;;18.55;66.98
23281;BME280;11809;56.390;-3.266;2023-08-06T08:17:34;101294.16;;;18.56;67.04
23281;BME280;11809;56.390;-3.266;2023-08-06T08:20:02;101294.91;;;18.58;67.01
23281;BME280;11809;56.390;-3.266;2023-08-06T08:22:30;101298.44;;;18.59;66.89
23281;BME280;11809;56.390;-3.266;2023-08-06T08:24:57;101286.94;;;18.58;66.82
23281;BME280;11809;56.390;-3.266;2023-08-06T08:27:24;101291.31;;;18.59;66.64
23281;BME280;11809;56.390;-3.266;2023-08-06T08:29:53;101286.94;;;18.58;66.26
23281;BME280;11809;56.390;-3.266;2023-08-06T08:32:20;101289.69;;;18.57;66.05
23281;BME280;11809;56.390;-3.266;2023-08-06T08:34:47;101289.78;;;18.55;66.30
23281;BME280;11809;56.390;-3.266;2023-08-06T08:37:14;101302.72;;;18.61;66.76
23281;BME280;11809;56.390;-3.266;2023-08-06T08:39:41;101289.41;;;18.61;66.44
23281;BME280;11809;56.390;-3.266;2023-08-06T08:42:10;101295.47;;;18.63;66.50
23281;BME280;11809;56.390;-3.266;2023-08-06T08:44:38;101290.25;;;18.62;67.29
23281;BME280;11809;56.390;-3.266;2023-08-06T08:47:06;101288.06;;;18.68;66.97
23281;BME280;11809;56.390;-3.266;2023-08-06T08:49:36;101293.00;;;18.74;67.16
23281;BME280;11809;56.390;-3.266;2023-08-06T08:52:04;101284.94;;;18.76;67.02
23281;BME280;11809;56.390;-3.266;2023-08-06T08:54:35;101284.63;;;18.81;67.20
23281;BME280;11809;56.390;-3.266;2023-08-06T08:57:05;101287.84;;;18.86;67.32
23281;BME280;11809;56.390;-3.266;2023-08-06T08:59:35;101286.78;;;18.88;66.98
23281;BME280;11809;56.390;-3.266;2023-08-06T09:02:04;101290.94;;;18.92;66.97
23281;BME280;11809;56.390;-3.266;2023-08-06T09:04:32;101290.13;;;18.92;66.69
23281;BME280;11809;56.390;-3.266;2023-08-06T09:07:02;101285.72;;;18.91;66.94
23281;BME280;11809;56.390;-3.266;2023-08-06T09:09:31;101293.53;;;18.94;66.93
23281;BME280;11809;56.390;-3.266;2023-08-06T09:12:01;101299.06;;;18.91;66.99
23281;BME280;11809;56.390;-3.266;2023-08-06T09:14:29;101291.91;;;18.91;67.12
23281;BME280;11809;56.390;-3.266;2023-08-06T09:16:56;101288.19;;;18.94;67.18
23281;BME280;11809;56.390;-3.266;2023-08-06T09:19:26;101287.25;;;18.95;67.27
23281;BME280;11809;56.390;-3.266;2023-08-06T09:21:55;101288.00;;;18.97;67.26
23281;BME280;11809;56.390;-3.266;2023-08-06T09:24:23;101288.66;;;19.00;67.08
23281;BME280;11809;56.390;-3.266;2023-08-06T09:26:51;101290.47;;;19.00;66.82
23281;BME280;11809;56.390;-3.266;2023-08-06T09:29:18;101286.84;;;19.01;67.00
23281;BME280;11809;56.390;-3.266;2023-08-06T09:31:47;101281.72;;;18.98;66.71
23281;BME280;11809;56.390;-3.266;2023-08-06T09:34:22;101285.91;;;19.02;66.21
23281;BME280;11809;56.390;-3.266;2023-08-06T09:36:51;101289.50;;;19.01;65.58
23281;BME280;11809;56.390;-3.266;2023-08-06T09:39:30;101285.16;;;19.00;64.66
23281;BME280;11809;56.390;-3.266;2023-08-06T09:41:59;101282.00;;;18.93;64.71
23281;BME280;11809;56.390;-3.266;2023-08-06T09:44:28;101291.22;;;19.02;65.13
23281;BME280;11809;56.390;-3.266;2023-08-06T09:46:59;101284.97;;;19.03;64.80
23281;BME280;11809;56.390;-3.266;2023-08-06T09:49:40;101278.84;;;19.01;64.72
23281;BME280;11809;56.390;-3.266;2023-08-06T09:52:13;101280.56;;;19.02;65.35
23281;BME280;11809;56.390;-3.266;2023-08-06T09:54:42;101284.09;;;19.02;65.58
23281;BME280;11809;56.390;-3.266;2023-08-06T09:57:11;101282.50;;;19.00;64.78
23281;BME280;11809;56.390;-3.266;2023-08-06T09:59:40;101292.47;;;18.96;64.98
23281;BME280;11809;56.390;-3.266;2023-08-06T10:02:13;101291.81;;;18.93;65.30
23281;BME280;11809;56.390;-3.266;2023-08-06T10:04:44;101292.78;;;18.92;65.20
23281;BME280;11809;56.390;-3.266;2023-08-06T10:07:21;101290.69;;;18.97;65.56
23281;BME280;11809;56.390;-3.266;2023-08-06T10:09:49;101289.69;;;18.98;65.72
23281;BME280;11809;56.390;-3.266;2023-08-06T10:12:17;101296.59;;;18.88;63.20
23281;BME280;11809;56.390;-3.266;2023-08-06T10:14:47;101289.94;;;18.81;62.56
23281;BME280;11809;56.390;-3.266;2023-08-06T10:17:16;101283.94;;;18.77;63.03
23281;BME280;11809;56.390;-3.266;2023-08-06T10:19:44;101294.03;;;18.86;63.31
23281;BME280;11809;56.390;-3.266;2023-08-06T10:22:14;101294.28;;;18.82;62.68
23281;BME280;11809;56.390;-3.266;2023-08-06T10:24:55;101293.75;;;18.76;62.35
23281;BME280;11809;56.390;-3.266;2023-08-06T10:27:29;101293.00;;;18.74;62.15
23281;BME280;11809;56.390;-3.266;2023-08-06T10:32:50;101286.25;;;18.69;60.60
23281;BME280;11809;56.390;-3.266;2023-08-06T10:38:09;101296.63;;;18.59;60.09
23281;BME280;11809;56.390;-3.266;2023-08-06T10:40:39;101292.19;;;18.60;60.15
23281;BME280;11809;56.390;-3.266;2023-08-06T10:43:07;101294.63;;;18.63;60.97
23281;BME280;11809;56.390;-3.266;2023-08-06T10:45:36;101287.41;;;18.65;62.29
23281;BME280;11809;56.390;-3.266;2023-08-06T10:48:04;101293.47;;;18.67;62.88
23281;BME280;11809;56.390;-3.266;2023-08-06T10:50:32;101291.69;;;18.67;63.06
23281;BME280;11809;56.390;-3.266;2023-08-06T10:53:04;101286.34;;;18.67;63.08
23281;BME280;11809;56.390;-3.266;2023-08-06T10:55:33;101288.06;;;18.68;63.91
23281;BME280;11809;56.390;-3.266;2023-08-06T10:58:00;101289.59;;;18.72;64.07
23281;BME280;11809;56.390;-3.266;2023-08-06T11:00:27;101295.66;;;18.74;64.29
23281;BME280;11809;56.390;-3.266;2023-08-06T11:02:54;101300.31;;;18.71;64.12
23281;BME280;11809;56.390;-3.266;2023-08-06T11:05:22;101295.09;;;18.69;63.81
23281;BME280;11809;56.390;-3.266;2023-08-06T11:07:49;101297.56;;;18.72;63.84
23281;BME280;11809;56.390;-3.266;2023-08-06T11:10:18;101296.25;;;18.65;62.04
23281;BME280;11809;56.390;-3.266;2023-08-06T11:12:45;101297.19;;;18.64;60.71
23281;BME280;11809;56.390;-3.266;2023-08-06T11:15:12;101295.03;;;18.57;59.60
23281;BME280;11809;56.390;-3.266;2023-08-06T11:17:40;101294.28;;;18.55;60.26
23281;BME280;11809;56.390;-3.266;2023-08-06T11:20:09;101293.41;;;18.54;60.87
23281;BME280;11809;56.390;-3.266;2023-08-06T11:22:37;101305.19;;;18.50;60.75
23281;BME280;11809;56.390;-3.266;2023-08-06T11:25:06;101300.72;;;18.51;61.29
23281;BME280;11809;56.390;-3.266;2023-08-06T11:27:34;101300.19;;;18.44;61.22
23281;BME280;11809;56.390;-3.266;2023-08-06T11:30:01;101302.22;;;18.41;61.25
23281;BME280;11809;56.390;-3.266;2023-08-06T11:32:30;101296.16;;;18.39;61.76
23281;BME280;11809;56.390;-3.266;2023-08-06T11:34:57;101293.66;;;18.36;61.76
23281;BME280;11809;56.390;-3.266;2023-08-06T11:37:25;101296.59;;;18.31;61.98
23281;BME280;11809;56.390;-3.266;2023-08-06T11:39:52;101293.56;;;18.37;61.72
23281;BME280;11809;56.390;-3.266;2023-08-06T11:42:20;101296.22;;;18.37;61.48
23281;BME280;11809;56.390;-3.266;2023-08-06T11:44:48;101304.22;;;18.37;61.62
23281;BME280;11809;56.390;-3.266;2023-08-06T11:47:17;101297.19;;;18.36;61.62
23281;BME280;11809;56.390;-3.266;2023-08-06T11:49:49;101300.78;;;18.35;61.21
23281;BME280;11809;56.390;-3.266;2023-08-06T11:52:18;101297.19;;;18.36;61.36
23281;BME280;11809;56.390;-3.266;2023-08-06T11:55:06;101293.25;;;18.42;61.53
23281;BME280;11809;56.390;-3.266;2023-08-06T11:57:35;101295.94;;;18.42;61.12
23281;BME280;11809;56.390;-3.266;2023-08-06T12:00:06;101296.59;;;18.45;61.22
23281;BME280;11809;56.390;-3.266;2023-08-06T12:02:35;101289.00;;;18.39;60.24
23281;BME280;11809;56.390;-3.266;2023-08-06T12:05:10;101297.94;;;18.38;60.60
23281;BME280;11809;56.390;-3.266;2023-08-06T12:07:39;101294.41;;;18.38;60.51
23281;BME280;11809;56.390;-3.266;2023-08-06T12:10:07;101297.66;;;18.43;61.08
23281;BME280;11809;56.390;-3.266;2023-08-06T12:12:35;101296.78;;;18.42;61.06
23281;BME280;11809;56.390;-3.266;2023-08-06T12:15:03;101293.19;;;18.43;60.32
23281;BME280;11809;56.390;-3.266;2023-08-06T12:17:30;101295.19;;;18.40;60.07
23281;BME280;11809;56.390;-3.266;2023-08-06T12:19:58;101296.16;;;18.39;60.10
23281;BME280;11809;56.390;-3.266;2023-08-06T12:22:25;101296.97;;;18.39;60.20
23281;BME280;11809;56.390;-3.266;2023-08-06T12:24:52;101297.38;;;18.47;61.14
23281;BME280;11809;56.390;-3.266;2023-08-06T12:27:19;101288.53;;;18.47;60.86
23281;BME280;11809;56.390;-3.266;2023-08-06T12:29:49;101290.53;;;18.43;60.33
23281;BME280;11809;56.390;-3.266;2023-08-06T12:32:16;101290.53;;;18.43;60.16
23281;BME280;11809;56.390;-3.266;2023-08-06T12:34:43;101293.19;;;18.43;60.34
23281;BME280;11809;56.390;-3.266;2023-08-06T12:37:13;101278.34;;;18.39;59.67
23281;BME280;11809;56.390;-3.266;2023-08-06T12:39:41;101293.78;;;18.48;59.83
23281;BME280;11809;56.390;-3.266;2023-08-06T12:42:08;101296.25;;;18.51;59.59
23281;BME280;11809;56.390;-3.266;2023-08-06T12:44:36;101284.22;;;18.44;59.42
23281;BME280;11809;56.390;-3.266;2023-08-06T12:47:03;101286.06;;;18.44;59.76
23281;BME280;11809;56.390;-3.266;2023-08-06T12:49:30;101296.44;;;18.48;59.80
23281;BME280;11809;56.390;-3.266;2023-08-06T12:52:00;101293.78;;;18.48;59.57
23281;BME280;11809;56.390;-3.266;2023-08-06T12:54:27;101292.50;;;18.40;59.17
23281;BME280;11809;56.390;-3.266;2023-08-06T12:56:54;101292.31;;;18.43;59.18